createdAt,value
2023-05-10T00:01:32.186Z,97871.77
2023-05-10T00:04:01.617Z,97870.45
2023-05-10T00:06:31.351Z,97868.30
2023-05-10T00:09:01.029Z,97866.50
2023-05-10T00:11:30.350Z,97859.88
2023-05-10T00:14:01.218Z,97857.33
2023-05-10T00:16:33.278Z,97858.11
2023-05-10T00:19:08.122Z,97856.97
2023-05-10T00:21:40.055Z,97854.58
2023-05-10T00:24:11.410Z,97851.29
2023-05-10T00:26:41.604Z,97849.14
2023-05-10T00:29:12.533Z,97845.61
2023-05-10T00:31:44.987Z,97844.88
2023-05-10T00:34:18.376Z,97841.60
2023-05-10T00:36:49.764Z,97844.30
2023-05-10T00:39:20.065Z,97844.63
2023-05-10T00:41:49.172Z,97846.37
2023-05-10T00:44:20.193Z,97843.80
2023-05-10T00:46:50.473Z,97843.17
2023-05-10T00:49:21.207Z,97843.02
2023-05-10T00:51:51.569Z,97844.75
2023-05-10T00:54:21.793Z,97844.45
2023-05-10T00:56:53.527Z,97847.08
2023-05-10T00:59:23.536Z,97846.78
2023-05-10T01:01:54.009Z,97849.95
2023-05-10T01:04:27.057Z,97850.10
2023-05-10T01:06:58.493Z,97851.69
2023-05-10T01:09:30.671Z,97851.31
2023-05-10T01:12:00.864Z,97851.11
2023-05-10T01:14:35.109Z,97850.53
2023-05-10T01:17:08.704Z,97848.57
2023-05-10T01:19:41.435Z,97846.66
2023-05-10T01:22:17.235Z,97842.91
2023-05-10T01:24:54.519Z,97842.00
2023-05-10T01:27:28.901Z,97838.02
2023-05-10T01:30:16.332Z,97835.75
2023-05-10T01:32:55.311Z,97829.83
2023-05-10T01:35:34.542Z,97826.63
2023-05-10T01:38:10.115Z,97827.52
2023-05-10T01:40:43.793Z,97830.11
2023-05-10T01:43:20.650Z,97829.75
2023-05-10T01:46:14.903Z,97831.30
2023-05-10T01:48:53.399Z,97831.21
2023-05-10T01:51:28.998Z,97827.55
2023-05-10T01:54:05.809Z,97825.80
2023-05-10T01:56:38.120Z,97825.27
2023-05-10T01:59:08.446Z,97819.74
2023-05-10T02:01:39.444Z,97818.34
2023-05-10T02:04:11.934Z,97819.53
2023-05-10T02:06:43.950Z,97816.16
2023-05-10T02:09:15.111Z,97817.00
2023-05-10T02:11:46.408Z,97816.73
2023-05-10T02:14:19.016Z,97816.45
2023-05-10T02:16:52.733Z,97812.75
2023-05-10T02:19:24.914Z,97814.02
2023-05-10T02:21:57.111Z,97813.61
2023-05-10T02:24:30.048Z,97813.42
2023-05-10T02:27:02.620Z,97815.33
2023-05-10T02:29:34.124Z,97813.16
2023-05-10T02:32:06.085Z,97811.73
2023-05-10T02:34:36.769Z,97810.73
2023-05-10T02:37:08.416Z,97810.64
2023-05-10T02:39:45.989Z,97812.63
2023-05-10T02:42:22.149Z,97812.00
2023-05-10T02:44:52.941Z,97811.83
2023-05-10T02:47:23.209Z,97816.39
2023-05-10T02:49:53.289Z,97813.23
2023-05-10T02:52:28.680Z,97813.27
2023-05-10T02:55:02.123Z,97815.42
2023-05-10T02:57:35.288Z,97817.48
2023-05-10T03:00:06.905Z,97815.74
2023-05-10T03:02:38.129Z,97815.94
2023-05-10T03:05:09.080Z,97814.80
2023-05-10T03:07:39.777Z,97813.92
2023-05-10T03:10:12.169Z,97816.80
2023-05-10T03:12:58.819Z,97811.81
2023-05-10T03:15:44.599Z,97811.06
2023-05-10T03:18:19.861Z,97808.54
2023-05-10T03:20:50.586Z,97806.77
2023-05-10T03:23:20.118Z,97804.17
2023-05-10T03:25:50.526Z,97804.66
2023-05-10T03:28:21.430Z,97803.95
2023-05-10T03:30:50.912Z,97804.26
2023-05-10T03:33:20.230Z,97804.18
2023-05-10T03:35:49.699Z,97806.05
2023-05-10T03:38:18.930Z,97803.94
2023-05-10T03:40:48.713Z,97803.37
2023-05-10T03:43:18.415Z,97803.98
2023-05-10T03:45:48.733Z,97800.61
2023-05-10T03:48:18.874Z,97803.05
2023-05-10T03:50:48.304Z,97802.74
2023-05-10T03:53:18.499Z,97800.20
2023-05-10T03:55:48.102Z,97796.02
2023-05-10T03:58:17.802Z,97799.10
2023-05-10T04:00:46.924Z,97796.04
2023-05-10T04:03:17.082Z,97796.67
2023-05-10T04:05:46.118Z,97796.98
2023-05-10T04:08:17.865Z,97795.64
2023-05-10T04:10:48.596Z,97797.52
2023-05-10T04:13:18.650Z,97795.69
2023-05-10T04:15:48.119Z,97795.98
2023-05-10T04:18:17.132Z,97795.11
2023-05-10T04:20:45.818Z,97795.15
2023-05-10T04:23:15.728Z,97796.29
2023-05-10T04:25:44.604Z,97795.34
2023-05-10T04:28:13.586Z,97796.98
2023-05-10T04:30:42.839Z,97792.39
2023-05-10T04:33:11.675Z,97792.27
2023-05-10T04:35:41.490Z,97796.19
2023-05-10T04:38:10.079Z,97795.48
2023-05-10T04:40:39.297Z,97798.06
2023-05-10T04:43:08.960Z,97800.86
2023-05-10T04:45:38.272Z,97799.00
2023-05-10T04:48:07.871Z,97793.77
2023-05-10T04:50:36.973Z,97793.41
2023-05-10T04:53:05.990Z,97789.93
2023-05-10T04:55:34.677Z,97789.04
2023-05-10T04:58:04.377Z,97791.54
2023-05-10T05:00:34.687Z,97793.17
2023-05-10T05:03:03.683Z,97792.45
2023-05-10T05:05:32.886Z,97788.16
2023-05-10T05:08:02.222Z,97787.41
2023-05-10T05:10:31.281Z,97788.78
2023-05-10T05:13:00.165Z,97787.36
2023-05-10T05:15:31.208Z,97784.38
2023-05-10T05:18:00.519Z,97784.13
2023-05-10T05:20:29.823Z,97779.61
2023-05-10T05:22:58.598Z,97778.89
2023-05-10T05:25:27.489Z,97779.29
2023-05-10T05:27:56.997Z,97778.45
2023-05-10T05:30:25.587Z,97775.15
2023-05-10T05:32:54.267Z,97780.02
2023-05-10T05:35:23.392Z,97784.35
2023-05-10T05:37:52.566Z,97784.28
2023-05-10T05:40:22.061Z,97785.27
2023-05-10T05:42:51.563Z,97782.24
2023-05-10T05:45:20.295Z,97784.33
2023-05-10T05:47:49.665Z,97776.89
2023-05-10T05:50:18.946Z,97780.72
2023-05-10T05:52:47.444Z,97779.70
2023-05-10T05:55:17.125Z,97778.98
2023-05-10T05:57:47.011Z,97783.52
2023-05-10T06:00:15.848Z,97783.41
2023-05-10T06:02:44.727Z,97779.36
2023-05-10T06:05:15.544Z,97780.34
2023-05-10T06:07:45.332Z,97777.10
2023-05-10T06:10:13.981Z,97776.38
2023-05-10T06:12:42.986Z,97778.00
2023-05-10T06:15:11.848Z,97773.52
2023-05-10T06:17:41.633Z,97770.34
2023-05-10T06:20:10.646Z,97770.34
2023-05-10T06:22:39.355Z,97768.20
2023-05-10T06:25:09.157Z,97766.14
2023-05-10T06:27:38.039Z,97766.70
2023-05-10T06:30:13.437Z,97767.02
2023-05-10T06:32:45.201Z,97760.42
2023-05-10T06:35:14.269Z,97765.77
2023-05-10T06:37:43.435Z,97766.70
2023-05-10T06:40:20.727Z,97763.34
2023-05-10T06:42:49.912Z,97764.77
2023-05-10T06:45:20.224Z,97763.80
2023-05-10T06:47:49.055Z,97766.64
2023-05-10T06:50:17.916Z,97763.08
2023-05-10T06:52:46.708Z,97760.91
2023-05-10T06:55:16.258Z,97760.77
2023-05-10T06:57:45.622Z,97763.57
2023-05-10T07:00:14.815Z,97758.95
2023-05-10T07:02:43.742Z,97755.60
2023-05-10T07:05:12.939Z,97751.33
2023-05-10T07:07:41.581Z,97754.00
2023-05-10T07:10:12.958Z,97752.09
2023-05-10T07:12:41.466Z,97744.34
2023-05-10T07:15:10.812Z,97743.83
2023-05-10T07:17:39.341Z,97742.60
2023-05-10T07:20:08.645Z,97742.09
2023-05-10T07:22:38.306Z,97743.91
2023-05-10T07:25:07.711Z,97749.72
2023-05-10T07:27:36.410Z,97749.27
2023-05-10T07:30:07.924Z,97750.05
2023-05-10T07:32:37.031Z,97746.95
2023-05-10T07:35:06.868Z,97746.96
2023-05-10T07:37:36.873Z,97747.61
2023-05-10T07:40:06.288Z,97747.27
2023-05-10T07:42:35.461Z,97747.88
2023-05-10T07:45:04.466Z,97741.51
2023-05-10T07:47:33.388Z,97743.71
2023-05-10T07:50:02.345Z,97739.91
2023-05-10T07:52:31.224Z,97738.52
2023-05-10T07:54:59.808Z,97743.73
2023-05-10T07:57:28.510Z,97739.14
2023-05-10T07:59:57.185Z,97736.08
2023-05-10T08:02:26.921Z,97737.90
2023-05-10T08:04:57.626Z,97739.53
2023-05-10T08:07:26.527Z,97734.60
2023-05-10T08:09:55.203Z,97732.55
2023-05-10T08:12:23.994Z,97730.08
2023-05-10T08:14:52.776Z,97726.00
2023-05-10T08:17:22.842Z,97731.52
2023-05-10T08:19:53.449Z,97727.21
2023-05-10T08:22:22.851Z,97724.53
2023-05-10T08:24:51.719Z,97728.29
2023-05-10T08:27:20.513Z,97725.58
2023-05-10T08:29:50.626Z,97727.03
2023-05-10T08:32:19.581Z,97729.40
2023-05-10T08:34:48.307Z,97733.23
2023-05-10T08:37:18.215Z,97732.35
2023-05-10T08:39:49.282Z,97729.75
2023-05-10T08:42:21.117Z,97734.85
2023-05-10T08:44:50.958Z,97736.87
2023-05-10T08:47:20.122Z,97735.09
2023-05-10T08:49:52.431Z,97735.74
2023-05-10T08:52:22.011Z,97726.52
2023-05-10T08:54:50.897Z,97728.80
2023-05-10T08:57:20.306Z,97735.32
2023-05-10T08:59:49.429Z,97724.41
2023-05-10T09:02:19.810Z,97728.65
2023-05-10T09:04:50.292Z,97726.55
2023-05-10T09:07:19.467Z,97724.54
2023-05-10T09:09:49.977Z,97723.13
2023-05-10T09:12:18.458Z,97724.12
2023-05-10T09:14:47.894Z,97722.23
2023-05-10T09:17:16.438Z,97719.59
2023-05-10T09:19:46.154Z,97713.07
2023-05-10T09:22:14.855Z,97712.05
2023-05-10T09:24:46.489Z,97707.06
2023-05-10T09:27:15.693Z,97708.43
2023-05-10T09:29:44.721Z,97707.00
2023-05-10T09:32:13.787Z,97705.67
2023-05-10T09:34:43.685Z,97699.13
2023-05-10T09:37:12.701Z,97696.54
2023-05-10T09:39:43.218Z,97695.28
2023-05-10T09:42:11.915Z,97699.54
2023-05-10T09:44:42.424Z,97703.55
2023-05-10T09:47:11.643Z,97699.89
2023-05-10T09:49:40.219Z,97693.92
2023-05-10T09:52:09.309Z,97695.65
2023-05-10T09:54:38.713Z,97685.67
2023-05-10T09:57:10.776Z,97683.33
2023-05-10T09:59:44.366Z,97680.52
2023-05-10T10:02:13.478Z,97678.55
2023-05-10T10:04:43.106Z,97673.73
2023-05-10T10:07:11.752Z,97672.02
2023-05-10T10:09:40.856Z,97676.45
2023-05-10T10:12:09.959Z,97675.41
2023-05-10T10:14:38.843Z,97673.59
2023-05-10T10:17:08.899Z,97669.48
2023-05-10T10:19:38.230Z,97666.84
2023-05-10T10:22:07.465Z,97662.52
2023-05-10T10:24:36.045Z,97661.73
2023-05-10T10:27:13.541Z,97661.84
2023-05-10T10:30:00.981Z,97663.79
2023-05-10T10:32:34.908Z,97662.61
2023-05-10T10:35:04.274Z,97664.66
2023-05-10T10:37:44.837Z,97667.78
2023-05-10T10:40:28.376Z,97660.84
2023-05-10T10:42:57.568Z,97656.52
2023-05-10T10:45:27.749Z,97658.77
2023-05-10T10:48:14.898Z,97654.56
2023-05-10T10:50:47.420Z,97656.20
2023-05-10T10:53:15.901Z,97650.21
2023-05-10T10:55:49.066Z,97649.75
2023-05-10T10:58:30.747Z,97647.10
2023-05-10T11:01:11.853Z,97649.52
2023-05-10T11:03:40.934Z,97644.95
2023-05-10T11:06:10.004Z,97635.53
2023-05-10T11:08:45.451Z,97641.00
2023-05-10T11:11:16.302Z,97641.90
2023-05-10T11:13:48.360Z,97641.56
2023-05-10T11:16:21.966Z,97642.08
2023-05-10T11:19:02.925Z,97637.71
2023-05-10T11:21:32.519Z,97637.04
2023-05-10T11:24:02.653Z,97638.30
2023-05-10T11:26:37.716Z,97639.71
2023-05-10T11:29:06.675Z,97631.69
2023-05-10T11:31:35.810Z,97630.39
2023-05-10T11:34:04.692Z,97630.77
2023-05-10T11:36:34.883Z,97629.12
2023-05-10T11:39:04.391Z,97624.58
2023-05-10T11:41:33.191Z,97627.04
2023-05-10T11:44:02.164Z,97628.61
2023-05-10T11:46:30.822Z,97623.35
2023-05-10T11:49:07.535Z,97618.36
2023-05-10T11:51:40.557Z,97617.81
2023-05-10T11:54:11.040Z,97620.66
2023-05-10T11:56:41.261Z,97613.35
2023-05-10T11:59:09.859Z,97610.26
2023-05-10T12:01:38.940Z,97613.71
2023-05-10T12:04:08.417Z,97609.80
2023-05-10T12:06:41.905Z,97606.60
2023-05-10T12:09:10.642Z,97605.98
2023-05-10T12:11:43.984Z,97606.02
2023-05-10T12:14:13.628Z,97600.69
2023-05-10T12:16:44.583Z,97601.88
2023-05-10T12:19:13.805Z,97600.45
2023-05-10T12:21:43.172Z,97593.88
2023-05-10T12:24:11.760Z,97593.34
2023-05-10T12:26:40.646Z,97595.59
2023-05-10T12:29:19.374Z,97597.80
2023-05-10T12:31:58.127Z,97595.89
2023-05-10T12:34:27.397Z,97587.00
2023-05-10T12:36:56.178Z,97586.35
2023-05-10T12:39:25.404Z,97577.25
2023-05-10T12:41:54.275Z,97583.42
2023-05-10T12:44:23.075Z,97580.19
2023-05-10T12:46:51.638Z,97574.76
2023-05-10T12:49:20.947Z,97572.50
2023-05-10T12:51:49.312Z,97573.63
2023-05-10T12:54:17.895Z,97569.89
2023-05-10T12:56:46.693Z,97568.95
2023-05-10T12:59:15.680Z,97561.64
2023-05-10T13:01:44.342Z,97560.48
2023-05-10T13:04:13.089Z,97559.98
2023-05-10T13:06:42.077Z,97551.08
2023-05-10T13:09:11.480Z,97557.52
2023-05-10T13:11:42.808Z,97556.86
2023-05-10T13:14:12.399Z,97556.23
2023-05-10T13:16:41.291Z,97552.23
2023-05-10T13:19:10.487Z,97550.17
2023-05-10T13:21:39.588Z,97549.37
2023-05-10T13:24:08.781Z,97546.27
2023-05-10T13:26:37.662Z,97540.85
2023-05-10T13:29:06.451Z,97543.58
2023-05-10T13:31:35.388Z,97545.20
2023-05-10T13:34:04.031Z,97541.88
2023-05-10T13:36:32.916Z,97536.90
2023-05-10T13:39:03.851Z,97538.00
2023-05-10T13:41:32.542Z,97537.95
2023-05-10T13:44:01.027Z,97540.92
2023-05-10T13:46:30.851Z,97540.98
2023-05-10T13:48:59.327Z,97535.55
2023-05-10T13:51:28.213Z,97533.89
2023-05-10T13:53:56.697Z,97532.64
2023-05-10T13:56:25.274Z,97537.98
2023-05-10T13:58:53.964Z,97534.85
2023-05-10T14:01:22.698Z,97541.52
2023-05-10T14:03:52.082Z,97540.42
2023-05-10T14:06:21.863Z,97531.30
2023-05-10T14:08:50.347Z,97530.46
2023-05-10T14:11:19.411Z,97530.22
2023-05-10T14:13:48.739Z,97529.84
2023-05-10T14:16:17.578Z,97525.68
2023-05-10T14:18:47.494Z,97527.30
2023-05-10T14:21:16.734Z,97525.20
2023-05-10T14:23:46.652Z,97525.83
2023-05-10T14:26:15.141Z,97525.73
2023-05-10T14:28:43.796Z,97524.11
2023-05-10T14:31:12.606Z,97521.17
2023-05-10T14:33:41.702Z,97522.16
2023-05-10T14:36:10.382Z,97517.67
2023-05-10T14:38:38.868Z,97519.27
2023-05-10T14:41:08.666Z,97517.66
2023-05-10T14:43:37.980Z,97520.79
2023-05-10T14:46:07.000Z,97523.27
2023-05-10T14:48:36.175Z,97522.38
2023-05-10T14:51:04.967Z,97524.48
2023-05-10T14:53:34.049Z,97524.84
2023-05-10T14:56:03.055Z,97520.97
2023-05-10T14:58:33.902Z,97522.34
2023-05-10T15:01:02.719Z,97523.05
2023-05-10T15:03:31.891Z,97523.02
2023-05-10T15:06:01.384Z,97524.16
2023-05-10T15:08:30.053Z,97520.77
2023-05-10T15:10:58.638Z,97523.69
2023-05-10T15:13:27.332Z,97519.80
2023-05-10T15:15:56.661Z,97518.38
2023-05-10T15:18:25.199Z,97514.83
2023-05-10T15:20:54.401Z,97514.71
2023-05-10T15:23:23.299Z,97516.53
2023-05-10T15:25:56.978Z,97513.54
2023-05-10T15:28:25.702Z,97516.34
2023-05-10T15:30:54.802Z,97509.98
2023-05-10T15:33:23.771Z,97509.86
2023-05-10T15:35:52.453Z,97513.17
2023-05-10T15:38:21.352Z,97513.08
2023-05-10T15:40:49.935Z,97506.56
2023-05-10T15:43:18.613Z,97507.32
2023-05-10T15:45:47.092Z,97514.20
2023-05-10T15:48:15.891Z,97519.37
2023-05-10T15:50:44.483Z,97518.42
2023-05-10T15:53:13.878Z,97516.60
2023-05-10T15:55:42.462Z,97515.48
2023-05-10T15:58:11.659Z,97518.23
2023-05-10T16:00:40.888Z,97519.23
2023-05-10T16:03:09.857Z,97519.71
2023-05-10T16:05:38.529Z,97520.80
2023-05-10T16:08:07.828Z,97515.92
2023-05-10T16:10:37.327Z,97520.58
2023-05-10T16:13:06.222Z,97516.59
2023-05-10T16:15:34.711Z,97518.80
2023-05-10T16:18:03.269Z,97517.65
2023-05-10T16:20:33.122Z,97517.52
2023-05-10T16:23:03.426Z,97517.65
2023-05-10T16:25:32.218Z,97520.16
2023-05-10T16:28:01.001Z,97518.62
2023-05-10T16:30:31.139Z,97518.13
2023-05-10T16:33:00.843Z,97520.00
2023-05-10T16:35:30.235Z,97526.14
2023-05-10T16:37:58.715Z,97530.08
2023-05-10T16:40:27.186Z,97532.88
2023-05-10T16:42:55.669Z,97527.11
2023-05-10T16:45:24.467Z,97529.75
2023-05-10T16:47:54.148Z,97530.51
2023-05-10T16:50:22.972Z,97529.79
2023-05-10T16:52:51.432Z,97534.15
2023-05-10T16:55:20.746Z,97534.66
2023-05-10T16:57:49.931Z,97534.31
2023-05-10T17:00:18.420Z,97539.70
2023-05-10T17:02:47.077Z,97543.54
2023-05-10T17:05:15.901Z,97544.26
2023-05-10T17:07:45.399Z,97545.79
2023-05-10T17:10:14.182Z,97546.10
2023-05-10T17:12:43.284Z,97545.81
2023-05-10T17:15:12.803Z,97546.16
2023-05-10T17:17:41.483Z,97545.33
2023-05-10T17:20:10.522Z,97544.23
2023-05-10T17:22:39.366Z,97549.46
2023-05-10T17:25:08.036Z,97549.68
2023-05-10T17:27:36.930Z,97552.80
2023-05-10T17:30:06.147Z,97555.24
2023-05-10T17:32:34.636Z,97553.80
2023-05-10T17:35:05.383Z,97557.20
2023-05-10T17:37:34.025Z,97556.23
2023-05-10T17:40:03.869Z,97562.61
2023-05-10T17:42:32.943Z,97562.13
2023-05-10T17:45:01.660Z,97564.79
2023-05-10T17:47:30.171Z,97568.67
2023-05-10T17:49:58.884Z,97573.05
2023-05-10T17:52:27.366Z,97573.38
2023-05-10T17:54:56.053Z,97575.86
2023-05-10T17:57:25.450Z,97577.19
2023-05-10T17:59:53.927Z,97578.92
2023-05-10T18:02:22.445Z,97579.92
2023-05-10T18:04:51.240Z,97587.33
2023-05-10T18:07:20.600Z,97589.16
2023-05-10T18:09:48.974Z,97597.12
2023-05-10T18:12:17.461Z,97598.39
2023-05-10T18:14:46.167Z,97604.48
2023-05-10T18:17:15.548Z,97603.46
2023-05-10T18:19:44.026Z,97608.43
2023-05-10T18:22:12.916Z,97611.98
2023-05-10T18:24:42.551Z,97620.45
2023-05-10T18:27:11.722Z,97622.44
2023-05-10T18:29:40.203Z,97625.95
2023-05-10T18:32:08.888Z,97628.13
2023-05-10T18:34:37.580Z,97632.64
2023-05-10T18:37:08.017Z,97633.27
2023-05-10T18:39:37.507Z,97636.47
2023-05-10T18:42:06.196Z,97640.03
2023-05-10T18:44:34.981Z,97640.27
2023-05-10T18:47:03.459Z,97640.58
2023-05-10T18:49:32.562Z,97640.75
2023-05-10T18:52:01.099Z,97644.33
2023-05-10T18:54:30.480Z,97646.41
2023-05-10T18:56:59.159Z,97649.25
2023-05-10T18:59:28.422Z,97652.46
2023-05-10T19:01:57.558Z,97655.30
2023-05-10T19:04:26.640Z,97658.50
2023-05-10T19:06:56.308Z,97661.34
2023-05-10T19:09:26.547Z,97663.94
2023-05-10T19:11:54.919Z,97665.52
2023-05-10T19:14:25.174Z,97664.46
2023-05-10T19:16:56.123Z,97666.92
2023-05-10T19:19:25.692Z,97670.02
2023-05-10T19:21:54.168Z,97669.46
2023-05-10T19:24:23.781Z,97665.27
2023-05-10T19:26:53.895Z,97669.47
2023-05-10T19:29:23.699Z,97671.42
2023-05-10T19:31:53.033Z,97672.35
2023-05-10T19:34:21.714Z,97676.37
2023-05-10T19:36:52.427Z,97678.11
2023-05-10T19:39:22.155Z,97677.77
2023-05-10T19:41:50.721Z,97678.45
2023-05-10T19:44:19.557Z,97677.20
2023-05-10T19:46:48.129Z,97680.55
2023-05-10T19:49:17.209Z,97681.52
2023-05-10T19:51:46.652Z,97684.20
2023-05-10T19:54:15.200Z,97687.48
2023-05-10T19:56:43.874Z,97688.75
2023-05-10T19:59:12.748Z,97691.17
2023-05-10T20:01:41.454Z,97691.16
2023-05-10T20:04:10.681Z,97693.62
2023-05-10T20:06:39.322Z,97695.41
2023-05-10T20:09:07.815Z,97697.55
2023-05-10T20:11:36.380Z,97698.41
2023-05-10T20:14:05.484Z,97700.39
2023-05-10T20:16:34.099Z,97700.75
2023-05-10T20:19:03.532Z,97699.93
2023-05-10T20:21:33.891Z,97699.41
2023-05-10T20:24:02.370Z,97705.02
2023-05-10T20:26:31.466Z,97703.46
2023-05-10T20:29:00.769Z,97703.27
2023-05-10T20:31:29.737Z,97705.78
2023-05-10T20:33:58.141Z,97707.10
2023-05-10T20:36:27.228Z,97707.17
2023-05-10T20:38:56.130Z,97705.77
2023-05-10T20:41:25.233Z,97707.98
2023-05-10T20:43:53.791Z,97711.34
2023-05-10T20:46:23.472Z,97709.10
2023-05-10T20:48:52.198Z,97708.39
2023-05-10T20:51:20.784Z,97710.83
2023-05-10T20:53:49.371Z,97708.34
2023-05-10T20:56:19.104Z,97708.61
2023-05-10T20:58:47.560Z,97711.13
2023-05-10T21:01:16.273Z,97713.48
2023-05-10T21:03:45.139Z,97715.11
2023-05-10T21:06:13.843Z,97715.85
2023-05-10T21:08:42.612Z,97716.33
2023-05-10T21:11:11.186Z,97716.21
2023-05-10T21:13:40.298Z,97712.67
2023-05-10T21:16:08.997Z,97711.75
2023-05-10T21:18:38.108Z,97713.20
2023-05-10T21:21:06.855Z,97711.39
2023-05-10T21:23:35.545Z,97709.77
2023-05-10T21:26:05.388Z,97711.64
2023-05-10T21:28:34.251Z,97710.45
2023-05-10T21:31:03.349Z,97710.33
2023-05-10T21:33:32.039Z,97711.92
2023-05-10T21:36:02.132Z,97709.88
2023-05-10T21:38:31.869Z,97708.70
2023-05-10T21:41:02.122Z,97710.46
2023-05-10T21:43:32.107Z,97709.98
2023-05-10T21:46:00.831Z,97712.81
2023-05-10T21:48:29.977Z,97710.58
2023-05-10T21:50:59.612Z,97715.60
2023-05-10T21:53:28.889Z,97717.67
2023-05-10T21:55:59.802Z,97718.84
2023-05-10T21:58:29.448Z,97719.20
2023-05-10T22:00:59.109Z,97717.04
2023-05-10T22:03:28.433Z,97719.38
2023-05-10T22:05:58.564Z,97723.32
2023-05-10T22:08:27.777Z,97721.02
2023-05-10T22:10:57.385Z,97722.05
2023-05-10T22:13:27.171Z,97721.02
2023-05-10T22:15:56.275Z,97721.08
2023-05-10T22:18:26.331Z,97715.52
2023-05-10T22:20:55.705Z,97718.13
2023-05-10T22:23:25.507Z,97716.59
2023-05-10T22:25:54.500Z,97716.63
2023-05-10T22:28:24.417Z,97715.98
2023-05-10T22:30:53.958Z,97719.80
2023-05-10T22:33:23.150Z,97721.81
2023-05-10T22:35:52.606Z,97722.48
2023-05-10T22:38:21.926Z,97721.17
2023-05-10T22:40:51.419Z,97721.27
2023-05-10T22:43:20.435Z,97721.23
2023-05-10T22:45:50.347Z,97723.31
2023-05-10T22:48:21.260Z,97724.91
2023-05-10T22:50:51.309Z,97722.56
2023-05-10T22:53:21.119Z,97724.02
2023-05-10T22:55:53.125Z,97720.66
2023-05-10T22:58:24.455Z,97717.80
2023-05-10T23:00:55.567Z,97715.83
2023-05-10T23:03:25.770Z,97713.08
2023-05-10T23:05:55.201Z,97711.77
2023-05-10T23:08:26.500Z,97711.38
2023-05-10T23:10:56.450Z,97711.41
2023-05-10T23:13:26.719Z,97708.29
2023-05-10T23:15:56.981Z,97708.17
2023-05-10T23:18:27.802Z,97710.06
2023-05-10T23:20:57.266Z,97711.79
2023-05-10T23:23:26.733Z,97712.61
2023-05-10T23:25:56.103Z,97711.21
2023-05-10T23:28:26.393Z,97710.04
2023-05-10T23:30:57.009Z,97712.47
2023-05-10T23:33:27.690Z,97708.31
2023-05-10T23:35:59.640Z,97710.48
2023-05-10T23:38:31.219Z,97710.75
2023-05-10T23:41:02.076Z,97712.39
2023-05-10T23:43:32.038Z,97716.92
2023-05-10T23:46:03.374Z,97714.80
2023-05-10T23:48:35.988Z,97712.79
2023-05-10T23:51:07.702Z,97716.23
2023-05-10T23:53:38.912Z,97714.48
2023-05-10T23:56:09.902Z,97716.67
2023-05-10T23:58:40.190Z,97714.35
